sensor_id;sensor_type;location;lat;lon;timestamp;temperature;humidity
18823;DHT22;9540;51.550;7.980;2022-12-07T00:01:48;3.70;99.90
18823;DHT22;9540;51.550;7.980;2022-12-07T00:04:19;3.70;99.90
18823;DHT22;9540;51.550;7.980;2022-12-07T00:06:47;3.70;99.90
18823;DHT22;9540;51.550;7.980;2022-12-07T00:09:17;3.80;99.90
18823;DHT22;9540;51.550;7.980;2022-12-07T00:11:48;3.80;99.90
18823;DHT22;9540;51.550;7.980;2022-12-07T00:14:17;3.80;99.90
18823;DHT22;9540;51.550;7.980;2022-12-07T00:16:45;3.80;99.90
18823;DHT22;9540;51.550;7.980;2022-12-07T00:19:13;3.80;99.90
18823;DHT22;9540;51.550;7.980;2022-12-07T00:21:40;3.90;99.90
18823;DHT22;9540;51.550;7.980;2022-12-07T00:24:07;3.90;99.90
18823;DHT22;9540;51.550;7.980;2022-12-07T00:26:36;3.90;99.90
18823;DHT22;9540;51.550;7.980;2022-12-07T00:29:06;3.90;99.90
18823;DHT22;9540;51.550;7.980;2022-12-07T00:31:36;3.90;99.90
18823;DHT22;9540;51.550;7.980;2022-12-07T00:34:05;3.90;99.90
18823;DHT22;9540;51.550;7.980;2022-12-07T00:36:32;3.90;99.90
18823;DHT22;9540;51.550;7.980;2022-12-07T00:39:00;3.90;99.90
18823;DHT22;9540;51.550;7.980;2022-12-07T00:41:28;3.90;99.90
18823;DHT22;9540;51.550;7.980;2022-12-07T00:43:56;3.90;99.90
18823;DHT22;9540;51.550;7.980;2022-12-07T00:46:24;3.90;99.90
18823;DHT22;9540;51.550;7.980;2022-12-07T00:48:54;3.90;99.90
18823;DHT22;9540;51.550;7.980;2022-12-07T00:51:23;3.90;99.90
18823;DHT22;9540;51.550;7.980;2022-12-07T00:53:51;3.90;99.90
18823;DHT22;9540;51.550;7.980;2022-12-07T00:56:21;3.90;99.90
18823;DHT22;9540;51.550;7.980;2022-12-07T00:58:52;3.90;99.90
18823;DHT22;9540;51.550;7.980;2022-12-07T01:01:20;3.90;99.90
18823;DHT22;9540;51.550;7.980;2022-12-07T01:03:47;3.90;99.90
18823;DHT22;9540;51.550;7.980;2022-12-07T01:06:17;3.90;99.90
18823;DHT22;9540;51.550;7.980;2022-12-07T01:08:44;4.00;99.90
18823;DHT22;9540;51.550;7.980;2022-12-07T01:11:14;4.00;99.90
18823;DHT22;9540;51.550;7.980;2022-12-07T01:13:42;4.00;99.90
18823;DHT22;9540;51.550;7.980;2022-12-07T01:16:11;4.00;99.90
18823;DHT22;9540;51.550;7.980;2022-12-07T01:18:39;4.00;99.90
18823;DHT22;9540;51.550;7.980;2022-12-07T01:21:08;4.00;99.90
18823;DHT22;9540;51.550;7.980;2022-12-07T01:23:38;4.00;99.90
18823;DHT22;9540;51.550;7.980;2022-12-07T01:26:09;4.00;99.90
18823;DHT22;9540;51.550;7.980;2022-12-07T01:28:37;4.00;99.90
18823;DHT22;9540;51.550;7.980;2022-12-07T01:31:07;4.00;99.90
18823;DHT22;9540;51.550;7.980;2022-12-07T01:33:37;4.00;99.90
18823;DHT22;9540;51.550;7.980;2022-12-07T01:36:06;4.10;99.90
18823;DHT22;9540;51.550;7.980;2022-12-07T01:38:33;4.00;99.90
18823;DHT22;9540;51.550;7.980;2022-12-07T01:41:02;4.10;99.90
18823;DHT22;9540;51.550;7.980;2022-12-07T01:43:31;4.10;99.90
18823;DHT22;9540;51.550;7.980;2022-12-07T01:45:58;4.10;99.90
18823;DHT22;9540;51.550;7.980;2022-12-07T01:48:29;4.10;99.90
18823;DHT22;9540;51.550;7.980;2022-12-07T01:51:01;4.10;99.90
18823;DHT22;9540;51.550;7.980;2022-12-07T01:53:32;4.10;99.90
18823;DHT22;9540;51.550;7.980;2022-12-07T01:56:03;4.10;99.90
18823;DHT22;9540;51.550;7.980;2022-12-07T01:58:31;4.10;99.90
18823;DHT22;9540;51.550;7.980;2022-12-07T02:00:59;4.10;99.90
18823;DHT22;9540;51.550;7.980;2022-12-07T02:03:30;4.10;99.90
18823;DHT22;9540;51.550;7.980;2022-12-07T02:06:00;4.10;99.90
18823;DHT22;9540;51.550;7.980;2022-12-07T02:08:27;4.10;99.90
18823;DHT22;9540;51.550;7.980;2022-12-07T02:10:54;4.10;99.90
18823;DHT22;9540;51.550;7.980;2022-12-07T02:13:25;4.10;99.90
18823;DHT22;9540;51.550;7.980;2022-12-07T02:16:14;4.10;99.90
18823;DHT22;9540;51.550;7.980;2022-12-07T02:18:53;4.10;99.90
18823;DHT22;9540;51.550;7.980;2022-12-07T02:21:29;4.10;99.90
18823;DHT22;9540;51.550;7.980;2022-12-07T02:24:14;4.10;99.90
18823;DHT22;9540;51.550;7.980;2022-12-07T02:27:21;4.10;99.90
18823;DHT22;9540;51.550;7.980;2022-12-07T02:29:58;4.10;99.90
18823;DHT22;9540;51.550;7.980;2022-12-07T02:32:33;4.10;99.90
18823;DHT22;9540;51.550;7.980;2022-12-07T02:35:11;4.10;99.90
18823;DHT22;9540;51.550;7.980;2022-12-07T02:37:41;4.00;99.90
18823;DHT22;9540;51.550;7.980;2022-12-07T02:40:12;4.00;99.90
18823;DHT22;9540;51.550;7.980;2022-12-07T02:42:46;4.00;99.90
18823;DHT22;9540;51.550;7.980;2022-12-07T02:45:18;4.00;99.90
18823;DHT22;9540;51.550;7.980;2022-12-07T02:47:51;4.00;99.90
18823;DHT22;9540;51.550;7.980;2022-12-07T02:50:20;4.00;99.90
18823;DHT22;9540;51.550;7.980;2022-12-07T02:52:48;4.00;99.90
18823;DHT22;9540;51.550;7.980;2022-12-07T02:55:18;4.00;99.90
18823;DHT22;9540;51.550;7.980;2022-12-07T02:58:06;4.00;99.90
18823;DHT22;9540;51.550;7.980;2022-12-07T03:00:44;4.00;99.90
18823;DHT22;9540;51.550;7.980;2022-12-07T03:03:18;4.00;99.90
18823;DHT22;9540;51.550;7.980;2022-12-07T03:05:57;4.00;99.90
18823;DHT22;9540;51.550;7.980;2022-12-07T03:08:32;4.00;99.90
18823;DHT22;9540;51.550;7.980;2022-12-07T03:11:04;4.00;99.90
18823;DHT22;9540;51.550;7.980;2022-12-07T03:13:37;4.00;99.90
18823;DHT22;9540;51.550;7.980;2022-12-07T03:16:11;4.00;99.90
18823;DHT22;9540;51.550;7.980;2022-12-07T03:18:44;4.00;99.90
18823;DHT22;9540;51.550;7.980;2022-12-07T03:21:16;4.00;99.90
18823;DHT22;9540;51.550;7.980;2022-12-07T03:23:47;3.90;99.90
18823;DHT22;9540;51.550;7.980;2022-12-07T03:26:17;3.90;99.90
18823;DHT22;9540;51.550;7.980;2022-12-07T03:28:48;3.80;99.90
18823;DHT22;9540;51.550;7.980;2022-12-07T03:31:22;3.70;99.90
18823;DHT22;9540;51.550;7.980;2022-12-07T03:33:58;3.70;99.90
18823;DHT22;9540;51.550;7.980;2022-12-07T03:36:30;3.70;99.90
18823;DHT22;9540;51.550;7.980;2022-12-07T03:39:06;3.70;99.90
18823;DHT22;9540;51.550;7.980;2022-12-07T03:41:36;3.70;99.90
18823;DHT22;9540;51.550;7.980;2022-12-07T03:44:05;3.70;99.90
18823;DHT22;9540;51.550;7.980;2022-12-07T03:46:42;3.60;99.90
18823;DHT22;9540;51.550;7.980;2022-12-07T03:49:16;3.60;99.90
18823;DHT22;9540;51.550;7.980;2022-12-07T03:51:50;3.60;99.90
18823;DHT22;9540;51.550;7.980;2022-12-07T03:54:23;3.60;99.90
18823;DHT22;9540;51.550;7.980;2022-12-07T03:56:52;3.60;99.90
18823;DHT22;9540;51.550;7.980;2022-12-07T03:59:20;3.60;99.90
18823;DHT22;9540;51.550;7.980;2022-12-07T04:01:54;3.50;99.90
18823;DHT22;9540;51.550;7.980;2022-12-07T04:04:21;3.50;99.90
18823;DHT22;9540;51.550;7.980;2022-12-07T04:06:49;3.40;99.90
18823;DHT22;9540;51.550;7.980;2022-12-07T04:09:17;3.40;99.90
18823;DHT22;9540;51.550;7.980;2022-12-07T04:11:44;3.30;99.90
18823;DHT22;9540;51.550;7.980;2022-12-07T04:14:11;3.30;99.90
18823;DHT22;9540;51.550;7.980;2022-12-07T04:16:49;3.30;99.90
18823;DHT22;9540;51.550;7.980;2022-12-07T04:19:19;3.30;99.90
18823;DHT22;9540;51.550;7.980;2022-12-07T04:21:47;3.40;99.90
18823;DHT22;9540;51.550;7.980;2022-12-07T04:24:15;3.40;99.90
18823;DHT22;9540;51.550;7.980;2022-12-07T04:26:43;3.40;99.90
18823;DHT22;9540;51.550;7.980;2022-12-07T04:29:11;3.50;99.90
18823;DHT22;9540;51.550;7.980;2022-12-07T04:31:38;3.40;99.90
18823;DHT22;9540;51.550;7.980;2022-12-07T04:34:06;3.40;99.90
18823;DHT22;9540;51.550;7.980;2022-12-07T04:36:35;3.40;99.90
18823;DHT22;9540;51.550;7.980;2022-12-07T04:39:03;3.40;99.90
18823;DHT22;9540;51.550;7.980;2022-12-07T04:41:30;3.40;99.90
18823;DHT22;9540;51.550;7.980;2022-12-07T04:43:59;3.30;99.90
18823;DHT22;9540;51.550;7.980;2022-12-07T04:46:27;3.30;99.90
18823;DHT22;9540;51.550;7.980;2022-12-07T04:48:55;3.30;99.90
18823;DHT22;9540;51.550;7.980;2022-12-07T04:51:24;3.20;99.90
18823;DHT22;9540;51.550;7.980;2022-12-07T04:53:54;3.20;99.90
18823;DHT22;9540;51.550;7.980;2022-12-07T04:56:22;3.10;99.90
18823;DHT22;9540;51.550;7.980;2022-12-07T04:58:52;3.10;99.90
18823;DHT22;9540;51.550;7.980;2022-12-07T05:01:20;3.00;99.90
18823;DHT22;9540;51.550;7.980;2022-12-07T05:03:48;3.00;99.90
18823;DHT22;9540;51.550;7.980;2022-12-07T05:06:15;3.10;99.90
18823;DHT22;9540;51.550;7.980;2022-12-07T05:08:43;3.10;99.90
18823;DHT22;9540;51.550;7.980;2022-12-07T05:11:12;3.10;99.90
18823;DHT22;9540;51.550;7.980;2022-12-07T05:14:01;3.10;99.90
18823;DHT22;9540;51.550;7.980;2022-12-07T05:16:28;3.10;99.90
18823;DHT22;9540;51.550;7.980;2022-12-07T05:18:55;3.10;99.90
18823;DHT22;9540;51.550;7.980;2022-12-07T05:21:22;3.10;99.90
18823;DHT22;9540;51.550;7.980;2022-12-07T05:23:50;3.10;99.90
18823;DHT22;9540;51.550;7.980;2022-12-07T05:26:18;3.10;99.90
18823;DHT22;9540;51.550;7.980;2022-12-07T05:28:49;3.20;99.90
18823;DHT22;9540;51.550;7.980;2022-12-07T05:31:16;3.20;99.90
18823;DHT22;9540;51.550;7.980;2022-12-07T05:33:43;3.20;99.90
18823;DHT22;9540;51.550;7.980;2022-12-07T05:36:11;3.20;99.90
18823;DHT22;9540;51.550;7.980;2022-12-07T05:38:38;3.30;99.90
18823;DHT22;9540;51.550;7.980;2022-12-07T05:41:06;3.20;99.90
18823;DHT22;9540;51.550;7.980;2022-12-07T05:43:55;3.20;99.90
18823;DHT22;9540;51.550;7.980;2022-12-07T05:46:22;3.20;99.90
18823;DHT22;9540;51.550;7.980;2022-12-07T05:48:49;3.20;99.90
18823;DHT22;9540;51.550;7.980;2022-12-07T05:51:16;3.20;99.90
18823;DHT22;9540;51.550;7.980;2022-12-07T05:53:44;3.20;99.90
18823;DHT22;9540;51.550;7.980;2022-12-07T05:56:11;3.20;99.90
18823;DHT22;9540;51.550;7.980;2022-12-07T05:58:38;3.20;99.90
18823;DHT22;9540;51.550;7.980;2022-12-07T06:01:24;3.20;99.90
18823;DHT22;9540;51.550;7.980;2022-12-07T06:03:51;3.20;99.90
18823;DHT22;9540;51.550;7.980;2022-12-07T06:06:19;3.20;99.90
18823;DHT22;9540;51.550;7.980;2022-12-07T06:08:46;3.20;99.90
18823;DHT22;9540;51.550;7.980;2022-12-07T06:11:13;3.10;99.90
18823;DHT22;9540;51.550;7.980;2022-12-07T06:13:58;3.20;99.90
18823;DHT22;9540;51.550;7.980;2022-12-07T06:16:26;3.20;99.90
18823;DHT22;9540;51.550;7.980;2022-12-07T06:18:53;3.20;99.90
18823;DHT22;9540;51.550;7.980;2022-12-07T06:21:20;3.10;99.90
18823;DHT22;9540;51.550;7.980;2022-12-07T06:23:48;3.10;99.90
18823;DHT22;9540;51.550;7.980;2022-12-07T06:26:15;3.10;99.90
18823;DHT22;9540;51.550;7.980;2022-12-07T06:28:42;3.10;99.90
18823;DHT22;9540;51.550;7.980;2022-12-07T06:31:09;3.20;99.90
18823;DHT22;9540;51.550;7.980;2022-12-07T06:33:38;3.20;99.90
18823;DHT22;9540;51.550;7.980;2022-12-07T06:36:06;3.20;99.90
18823;DHT22;9540;51.550;7.980;2022-12-07T06:38:33;3.20;99.90
18823;DHT22;9540;51.550;7.980;2022-12-07T06:41:00;3.20;99.90
18823;DHT22;9540;51.550;7.980;2022-12-07T06:43:27;3.20;99.90
18823;DHT22;9540;51.550;7.980;2022-12-07T06:45:54;3.20;99.90
18823;DHT22;9540;51.550;7.980;2022-12-07T06:48:22;3.20;99.90
18823;DHT22;9540;51.550;7.980;2022-12-07T06:50:50;3.20;99.90
18823;DHT22;9540;51.550;7.980;2022-12-07T06:53:18;3.20;99.90
18823;DHT22;9540;51.550;7.980;2022-12-07T06:55:45;3.10;99.90
18823;DHT22;9540;51.550;7.980;2022-12-07T06:58:12;3.10;99.90
18823;DHT22;9540;51.550;7.980;2022-12-07T07:00:39;3.20;99.90
18823;DHT22;9540;51.550;7.980;2022-12-07T07:03:07;3.20;99.90
18823;DHT22;9540;51.550;7.980;2022-12-07T07:05:34;3.30;99.90
18823;DHT22;9540;51.550;7.980;2022-12-07T07:08:02;3.30;99.90
18823;DHT22;9540;51.550;7.980;2022-12-07T07:10:30;3.30;99.90
18823;DHT22;9540;51.550;7.980;2022-12-07T07:12:57;3.30;99.90
18823;DHT22;9540;51.550;7.980;2022-12-07T07:15:24;3.30;99.90
18823;DHT22;9540;51.550;7.980;2022-12-07T07:17:52;3.30;99.90
18823;DHT22;9540;51.550;7.980;2022-12-07T07:20:19;3.30;99.90
18823;DHT22;9540;51.550;7.980;2022-12-07T07:22:46;3.30;99.90
18823;DHT22;9540;51.550;7.980;2022-12-07T07:25:15;3.30;99.90
18823;DHT22;9540;51.550;7.980;2022-12-07T07:27:42;3.20;99.90
18823;DHT22;9540;51.550;7.980;2022-12-07T07:30:10;3.20;99.90
18823;DHT22;9540;51.550;7.980;2022-12-07T07:32:37;3.10;99.90
18823;DHT22;9540;51.550;7.980;2022-12-07T07:35:05;3.10;99.90
18823;DHT22;9540;51.550;7.980;2022-12-07T07:37:32;3.10;99.90
18823;DHT22;9540;51.550;7.980;2022-12-07T07:39:59;3.00;99.90
18823;DHT22;9540;51.550;7.980;2022-12-07T07:42:28;3.00;99.90
18823;DHT22;9540;51.550;7.980;2022-12-07T07:44:55;3.00;99.90
18823;DHT22;9540;51.550;7.980;2022-12-07T07:47:22;3.00;99.90
18823;DHT22;9540;51.550;7.980;2022-12-07T07:49:49;3.00;99.90
18823;DHT22;9540;51.550;7.980;2022-12-07T07:52:16;3.10;99.90
18823;DHT22;9540;51.550;7.980;2022-12-07T07:54:44;3.10;99.90
18823;DHT22;9540;51.550;7.980;2022-12-07T07:57:11;3.10;99.90
18823;DHT22;9540;51.550;7.980;2022-12-07T07:59:39;3.20;99.90
18823;DHT22;9540;51.550;7.980;2022-12-07T08:02:07;3.20;99.90
18823;DHT22;9540;51.550;7.980;2022-12-07T08:04:36;3.30;99.90
18823;DHT22;9540;51.550;7.980;2022-12-07T08:07:03;3.30;99.90
18823;DHT22;9540;51.550;7.980;2022-12-07T08:09:30;3.40;99.90
18823;DHT22;9540;51.550;7.980;2022-12-07T08:11:57;3.40;99.90
18823;DHT22;9540;51.550;7.980;2022-12-07T08:14:25;3.40;99.90
18823;DHT22;9540;51.550;7.980;2022-12-07T08:16:54;3.40;99.90
18823;DHT22;9540;51.550;7.980;2022-12-07T08:19:21;3.30;99.90
18823;DHT22;9540;51.550;7.980;2022-12-07T08:21:48;3.40;99.90
18823;DHT22;9540;51.550;7.980;2022-12-07T08:24:16;3.40;99.90
18823;DHT22;9540;51.550;7.980;2022-12-07T08:26:43;3.40;99.90
18823;DHT22;9540;51.550;7.980;2022-12-07T08:29:10;3.40;99.90
18823;DHT22;9540;51.550;7.980;2022-12-07T08:31:38;3.40;99.90
18823;DHT22;9540;51.550;7.980;2022-12-07T08:34:06;3.40;99.90
18823;DHT22;9540;51.550;7.980;2022-12-07T08:36:33;3.30;99.90
18823;DHT22;9540;51.550;7.980;2022-12-07T08:39:00;3.40;99.90
18823;DHT22;9540;51.550;7.980;2022-12-07T08:41:28;3.40;99.90
18823;DHT22;9540;51.550;7.980;2022-12-07T08:43:55;3.40;99.90
18823;DHT22;9540;51.550;7.980;2022-12-07T08:46:26;3.40;99.90
18823;DHT22;9540;51.550;7.980;2022-12-07T08:48:58;3.40;99.90
18823;DHT22;9540;51.550;7.980;2022-12-07T08:51:30;3.50;99.90
18823;DHT22;9540;51.550;7.980;2022-12-07T08:53:58;3.60;99.90
18823;DHT22;9540;51.550;7.980;2022-12-07T08:56:27;3.70;99.90
18823;DHT22;9540;51.550;7.980;2022-12-07T08:58:54;3.80;99.90
18823;DHT22;9540;51.550;7.980;2022-12-07T09:01:21;3.80;99.90
18823;DHT22;9540;51.550;7.980;2022-12-07T09:03:49;3.80;99.90
18823;DHT22;9540;51.550;7.980;2022-12-07T09:06:16;3.80;99.90
18823;DHT22;9540;51.550;7.980;2022-12-07T09:08:47;3.80;99.90
18823;DHT22;9540;51.550;7.980;2022-12-07T09:11:15;3.90;99.90
18823;DHT22;9540;51.550;7.980;2022-12-07T09:13:43;4.00;99.90
18823;DHT22;9540;51.550;7.980;2022-12-07T09:16:10;4.20;99.90
18823;DHT22;9540;51.550;7.980;2022-12-07T09:18:37;4.60;99.90
18823;DHT22;9540;51.550;7.980;2022-12-07T09:21:04;4.90;99.90
18823;DHT22;9540;51.550;7.980;2022-12-07T09:23:32;4.90;99.90
18823;DHT22;9540;51.550;7.980;2022-12-07T09:26:00;4.80;99.90
18823;DHT22;9540;51.550;7.980;2022-12-07T09:28:28;4.60;99.90
18823;DHT22;9540;51.550;7.980;2022-12-07T09:30:55;4.50;99.90
18823;DHT22;9540;51.550;7.980;2022-12-07T09:33:22;4.40;99.90
18823;DHT22;9540;51.550;7.980;2022-12-07T09:35:51;4.30;99.90
18823;DHT22;9540;51.550;7.980;2022-12-07T09:38:19;4.30;99.90
18823;DHT22;9540;51.550;7.980;2022-12-07T09:40:47;4.30;99.90
18823;DHT22;9540;51.550;7.980;2022-12-07T09:43:18;4.20;99.90
18823;DHT22;9540;51.550;7.980;2022-12-07T09:45:48;4.20;99.90
18823;DHT22;9540;51.550;7.980;2022-12-07T09:48:18;4.20;99.90
18823;DHT22;9540;51.550;7.980;2022-12-07T09:50:47;4.20;99.90
18823;DHT22;9540;51.550;7.980;2022-12-07T09:53:24;4.10;99.90
18823;DHT22;9540;51.550;7.980;2022-12-07T09:55:52;4.20;99.90
18823;DHT22;9540;51.550;7.980;2022-12-07T09:58:24;4.20;99.90
18823;DHT22;9540;51.550;7.980;2022-12-07T10:00:53;4.20;99.90
18823;DHT22;9540;51.550;7.980;2022-12-07T10:03:22;4.20;99.90
18823;DHT22;9540;51.550;7.980;2022-12-07T10:05:51;4.30;99.90
18823;DHT22;9540;51.550;7.980;2022-12-07T10:08:18;4.40;99.90
18823;DHT22;9540;51.550;7.980;2022-12-07T10:10:49;4.50;99.90
18823;DHT22;9540;51.550;7.980;2022-12-07T10:13:21;4.60;99.90
18823;DHT22;9540;51.550;7.980;2022-12-07T10:15:51;4.80;99.90
18823;DHT22;9540;51.550;7.980;2022-12-07T10:18:27;4.90;99.90
18823;DHT22;9540;51.550;7.980;2022-12-07T10:21:09;5.00;99.90
18823;DHT22;9540;51.550;7.980;2022-12-07T10:23:38;5.00;99.90
18823;DHT22;9540;51.550;7.980;2022-12-07T10:26:30;5.00;99.90
18823;DHT22;9540;51.550;7.980;2022-12-07T10:29:15;5.00;99.90
18823;DHT22;9540;51.550;7.980;2022-12-07T10:31:43;5.00;99.90
18823;DHT22;9540;51.550;7.980;2022-12-07T10:34:21;4.90;99.90
18823;DHT22;9540;51.550;7.980;2022-12-07T10:36:50;5.00;99.90
18823;DHT22;9540;51.550;7.980;2022-12-07T10:39:19;5.10;99.90
18823;DHT22;9540;51.550;7.980;2022-12-07T10:41:56;5.10;99.90
18823;DHT22;9540;51.550;7.980;2022-12-07T10:44:26;5.10;99.90
18823;DHT22;9540;51.550;7.980;2022-12-07T10:47:18;5.20;99.90
18823;DHT22;9540;51.550;7.980;2022-12-07T10:53:04;5.30;99.90
18823;DHT22;9540;51.550;7.980;2022-12-07T10:55:41;5.30;99.90
18823;DHT22;9540;51.550;7.980;2022-12-07T10:58:24;5.30;99.90
18823;DHT22;9540;51.550;7.980;2022-12-07T11:01:07;5.40;99.90
18823;DHT22;9540;51.550;7.980;2022-12-07T11:03:45;5.40;99.90
18823;DHT22;9540;51.550;7.980;2022-12-07T11:06:22;5.50;99.90
18823;DHT22;9540;51.550;7.980;2022-12-07T11:09:00;5.60;99.90
18823;DHT22;9540;51.550;7.980;2022-12-07T11:11:35;5.80;99.90
18823;DHT22;9540;51.550;7.980;2022-12-07T11:14:11;5.90;99.90
18823;DHT22;9540;51.550;7.980;2022-12-07T11:16:53;6.00;99.90
18823;DHT22;9540;51.550;7.980;2022-12-07T11:19:44;6.00;99.90
18823;DHT22;9540;51.550;7.980;2022-12-07T11:22:20;6.00;99.90
18823;DHT22;9540;51.550;7.980;2022-12-07T11:24:56;6.00;99.90
18823;DHT22;9540;51.550;7.980;2022-12-07T11:27:35;5.80;99.90
18823;DHT22;9540;51.550;7.980;2022-12-07T11:30:12;5.70;99.90
18823;DHT22;9540;51.550;7.980;2022-12-07T11:32:50;5.70;99.90
18823;DHT22;9540;51.550;7.980;2022-12-07T11:35:29;5.70;99.90
18823;DHT22;9540;51.550;7.980;2022-12-07T11:38:01;5.70;99.90
18823;DHT22;9540;51.550;7.980;2022-12-07T11:40:31;5.80;99.90
18823;DHT22;9540;51.550;7.980;2022-12-07T11:43:05;5.70;99.90
18823;DHT22;9540;51.550;7.980;2022-12-07T11:45:35;5.60;99.90
18823;DHT22;9540;51.550;7.980;2022-12-07T11:48:11;5.50;99.90
18823;DHT22;9540;51.550;7.980;2022-12-07T11:50:44;5.50;99.90
18823;DHT22;9540;51.550;7.980;2022-12-07T11:53:17;5.50;99.90
18823;DHT22;9540;51.550;7.980;2022-12-07T11:55:50;5.50;99.90
18823;DHT22;9540;51.550;7.980;2022-12-07T11:58:35;5.60;99.90
18823;DHT22;9540;51.550;7.980;2022-12-07T12:01:14;5.50;99.90
18823;DHT22;9540;51.550;7.980;2022-12-07T12:03:45;5.60;99.90
18823;DHT22;9540;51.550;7.980;2022-12-07T12:06:14;5.50;99.90
18823;DHT22;9540;51.550;7.980;2022-12-07T12:08:47;5.60;99.90
18823;DHT22;9540;51.550;7.980;2022-12-07T12:11:30;5.60;99.90
18823;DHT22;9540;51.550;7.980;2022-12-07T12:14:14;5.50;99.90
18823;DHT22;9540;51.550;7.980;2022-12-07T12:17:12;5.50;99.90
18823;DHT22;9540;51.550;7.980;2022-12-07T12:19:58;5.40;99.90
18823;DHT22;9540;51.550;7.980;2022-12-07T12:22:33;5.40;99.90
18823;DHT22;9540;51.550;7.980;2022-12-07T12:25:05;5.40;99.90
18823;DHT22;9540;51.550;7.980;2022-12-07T12:27:37;5.40;99.90
18823;DHT22;9540;51.550;7.980;2022-12-07T12:30:23;5.40;99.90
18823;DHT22;9540;51.550;7.980;2022-12-07T12:32:51;5.50;99.90
18823;DHT22;9540;51.550;7.980;2022-12-07T12:35:31;5.50;99.90
18823;DHT22;9540;51.550;7.980;2022-12-07T12:38:23;5.50;99.90
18823;DHT22;9540;51.550;7.980;2022-12-07T12:40:53;5.50;99.90
18823;DHT22;9540;51.550;7.980;2022-12-07T12:43:49;5.40;99.90
18823;DHT22;9540;51.550;7.980;2022-12-07T12:46:54;5.30;99.90
18823;DHT22;9540;51.550;7.980;2022-12-07T12:49:36;5.20;99.90
18823;DHT22;9540;51.550;7.980;2022-12-07T12:58:30;5.20;99.90
18823;DHT22;9540;51.550;7.980;2022-12-07T13:04:48;5.10;99.90
18823;DHT22;9540;51.550;7.980;2022-12-07T13:10:34;5.10;99.90
18823;DHT22;9540;51.550;7.980;2022-12-07T13:13:03;5.10;99.90
18823;DHT22;9540;51.550;7.980;2022-12-07T13:15:35;5.10;99.90
18823;DHT22;9540;51.550;7.980;2022-12-07T13:18:14;5.10;99.90
18823;DHT22;9540;51.550;7.980;2022-12-07T13:20:57;5.10;99.90
18823;DHT22;9540;51.550;7.980;2022-12-07T13:23:28;5.10;99.90
18823;DHT22;9540;51.550;7.980;2022-12-07T13:26:03;5.10;99.90
18823;DHT22;9540;51.550;7.980;2022-12-07T13:28:35;5.10;99.90
18823;DHT22;9540;51.550;7.980;2022-12-07T13:31:22;5.10;99.90
18823;DHT22;9540;51.550;7.980;2022-12-07T13:33:49;5.10;99.90
18823;DHT22;9540;51.550;7.980;2022-12-07T13:36:21;5.10;99.90
18823;DHT22;9540;51.550;7.980;2022-12-07T13:38:51;5.10;99.90
18823;DHT22;9540;51.550;7.980;2022-12-07T13:41:21;5.10;99.90
18823;DHT22;9540;51.550;7.980;2022-12-07T13:43:51;5.10;99.90
18823;DHT22;9540;51.550;7.980;2022-12-07T13:46:25;5.10;99.90
18823;DHT22;9540;51.550;7.980;2022-12-07T13:48:53;5.10;99.90
18823;DHT22;9540;51.550;7.980;2022-12-07T13:51:24;5.10;99.90
18823;DHT22;9540;51.550;7.980;2022-12-07T13:53:54;5.10;99.90
18823;DHT22;9540;51.550;7.980;2022-12-07T13:56:22;5.10;99.90
18823;DHT22;9540;51.550;7.980;2022-12-07T13:58:53;5.10;99.90
18823;DHT22;9540;51.550;7.980;2022-12-07T14:01:21;5.10;99.90
18823;DHT22;9540;51.550;7.980;2022-12-07T14:03:49;5.10;99.90
18823;DHT22;9540;51.550;7.980;2022-12-07T14:06:26;5.10;99.90
18823;DHT22;9540;51.550;7.980;2022-12-07T14:09:08;5.10;99.90
18823;DHT22;9540;51.550;7.980;2022-12-07T14:11:35;5.10;99.90
18823;DHT22;9540;51.550;7.980;2022-12-07T14:14:04;5.10;99.90
18823;DHT22;9540;51.550;7.980;2022-12-07T14:16:36;5.10;99.90
18823;DHT22;9540;51.550;7.980;2022-12-07T14:19:19;5.10;99.90
18823;DHT22;9540;51.550;7.980;2022-12-07T14:22:06;5.10;99.90
18823;DHT22;9540;51.550;7.980;2022-12-07T14:24:41;5.00;99.90
18823;DHT22;9540;51.550;7.980;2022-12-07T14:27:17;5.00;99.90
18823;DHT22;9540;51.550;7.980;2022-12-07T14:29:45;4.90;99.90
18823;DHT22;9540;51.550;7.980;2022-12-07T14:32:24;4.90;99.90
18823;DHT22;9540;51.550;7.980;2022-12-07T14:35:00;4.80;99.90
18823;DHT22;9540;51.550;7.980;2022-12-07T14:37:28;4.80;99.90
18823;DHT22;9540;51.550;7.980;2022-12-07T14:39:56;4.70;99.90
18823;DHT22;9540;51.550;7.980;2022-12-07T14:42:26;4.70;99.90
18823;DHT22;9540;51.550;7.980;2022-12-07T14:44:54;4.60;99.90
18823;DHT22;9540;51.550;7.980;2022-12-07T14:47:22;4.50;99.90
18823;DHT22;9540;51.550;7.980;2022-12-07T14:49:49;4.40;99.90
18823;DHT22;9540;51.550;7.980;2022-12-07T14:52:20;4.30;99.90
18823;DHT22;9540;51.550;7.980;2022-12-07T14:54:48;4.20;99.90
18823;DHT22;9540;51.550;7.980;2022-12-07T14:57:16;4.20;99.90
18823;DHT22;9540;51.550;7.980;2022-12-07T14:59:43;4.10;99.90
18823;DHT22;9540;51.550;7.980;2022-12-07T15:02:14;4.10;99.90
18823;DHT22;9540;51.550;7.980;2022-12-07T15:04:43;4.00;99.90
18823;DHT22;9540;51.550;7.980;2022-12-07T15:07:14;4.00;99.90
18823;DHT22;9540;51.550;7.980;2022-12-07T15:09:42;3.90;99.90
18823;DHT22;9540;51.550;7.980;2022-12-07T15:12:09;3.90;99.90
18823;DHT22;9540;51.550;7.980;2022-12-07T15:14:36;3.80;99.90
18823;DHT22;9540;51.550;7.980;2022-12-07T15:17:03;3.70;99.90
18823;DHT22;9540;51.550;7.980;2022-12-07T15:19:31;3.60;99.90
18823;DHT22;9540;51.550;7.980;2022-12-07T15:21:59;3.50;99.90
18823;DHT22;9540;51.550;7.980;2022-12-07T15:24:26;3.50;99.90
18823;DHT22;9540;51.550;7.980;2022-12-07T15:26:54;3.40;99.90
18823;DHT22;9540;51.550;7.980;2022-12-07T15:29:21;3.40;99.90
18823;DHT22;9540;51.550;7.980;2022-12-07T15:31:48;3.30;99.90
18823;DHT22;9540;51.550;7.980;2022-12-07T15:34:16;3.30;99.90
18823;DHT22;9540;51.550;7.980;2022-12-07T15:36:43;3.30;99.90
18823;DHT22;9540;51.550;7.980;2022-12-07T15:39:12;3.20;99.90
18823;DHT22;9540;51.550;7.980;2022-12-07T15:41:39;3.20;99.90
18823;DHT22;9540;51.550;7.980;2022-12-07T15:44:08;3.10;99.90
18823;DHT22;9540;51.550;7.980;2022-12-07T15:46:52;3.10;99.90
18823;DHT22;9540;51.550;7.980;2022-12-07T15:49:19;3.00;99.90
18823;DHT22;9540;51.550;7.980;2022-12-07T15:51:47;3.00;99.90
18823;DHT22;9540;51.550;7.980;2022-12-07T15:54:20;2.90;99.90
18823;DHT22;9540;51.550;7.980;2022-12-07T15:56:48;2.80;99.90
18823;DHT22;9540;51.550;7.980;2022-12-07T15:59:15;2.80;99.90
18823;DHT22;9540;51.550;7.980;2022-12-07T16:01:42;2.70;99.90
18823;DHT22;9540;51.550;7.980;2022-12-07T16:04:09;2.70;99.90
18823;DHT22;9540;51.550;7.980;2022-12-07T16:06:37;2.60;99.90
18823;DHT22;9540;51.550;7.980;2022-12-07T16:09:07;2.50;99.90
18823;DHT22;9540;51.550;7.980;2022-12-07T16:11:36;2.50;99.90
18823;DHT22;9540;51.550;7.980;2022-12-07T16:14:03;2.40;99.90
18823;DHT22;9540;51.550;7.980;2022-12-07T16:16:30;2.30;99.90
18823;DHT22;9540;51.550;7.980;2022-12-07T16:18:57;2.20;99.90
18823;DHT22;9540;51.550;7.980;2022-12-07T16:21:24;2.20;99.90
18823;DHT22;9540;51.550;7.980;2022-12-07T16:23:52;2.20;99.90
18823;DHT22;9540;51.550;7.980;2022-12-07T16:26:21;2.30;99.90
18823;DHT22;9540;51.550;7.980;2022-12-07T16:28:51;2.40;99.90
18823;DHT22;9540;51.550;7.980;2022-12-07T16:31:20;2.40;99.90
18823;DHT22;9540;51.550;7.980;2022-12-07T16:33:48;2.60;99.90
18823;DHT22;9540;51.550;7.980;2022-12-07T16:36:16;2.60;99.90
18823;DHT22;9540;51.550;7.980;2022-12-07T16:38:43;2.70;99.90
18823;DHT22;9540;51.550;7.980;2022-12-07T16:41:11;2.70;99.90
18823;DHT22;9540;51.550;7.980;2022-12-07T16:43:38;2.70;99.90